Time;durP1;ratioP1;P1;durP2;ratioP2;P2;SDS_P1;SDS_P2;PMS_P1;PMS_P2;Temp;Humidity;BMP_temperature;BMP_pressure;BME280_temperature;BME280_humidity;BME280_pressure;Samples;Min_cycle;Max_cycle;Signal;HPM_P1;HPM_P2
2023/01/08 00:00:34;;;;;;;27.10;21.87;;;;;;;2.75;100.00;102101.41;2088941;28;20192;-62
2023/01/08 00:01:35;;;;;;;30.37;22.73;;;;;;;2.73;100.00;102103.69;2090156;28;20184;-62
2023/01/08 00:02:35;;;;;;;27.07;21.53;;;;;;;2.73;100.00;102102.91;2096773;28;20179;-62
2023/01/08 00:03:36;;;;;;;27.47;22.13;;;;;;;2.73;100.00;102098.19;2097298;28;20179;-62
2023/01/08 00:04:37;;;;;;;27.85;22.27;;;;;;;2.77;100.00;102103.81;2097358;28;20224;-62
2023/01/08 00:05:37;;;;;;;29.10;21.60;;;;;;;2.72;100.00;102095.84;2096732;28;20187;-62
2023/01/08 00:06:38;;;;;;;27.47;21.27;;;;;;;2.79;100.00;102099.59;2097462;28;20199;-62
2023/01/08 00:07:39;;;;;;;31.13;22.33;;;;;;;2.82;100.00;102101.63;2097254;28;20190;-62
2023/01/08 00:08:39;;;;;;;29.33;22.17;;;;;;;2.35;100.00;102021.16;2093278;28;20693;-62
2023/01/08 00:09:40;;;;;;;27.17;22.00;;;;;;;2.85;100.00;102097.41;2088940;28;20186;-62
2023/01/08 00:10:40;;;;;;;29.90;22.97;;;;;;;2.89;100.00;102101.03;2094586;28;20188;-62
2023/01/08 00:11:41;;;;;;;27.80;23.57;;;;;;;2.90;100.00;102108.91;2088346;28;20611;-62
2023/01/08 00:12:42;;;;;;;27.63;22.90;;;;;;;2.95;100.00;102096.91;2089130;28;20180;-62
2023/01/08 00:13:43;;;;;;;29.83;22.87;;;;;;;2.79;100.00;102088.63;2096546;28;20188;-62
2023/01/08 00:14:43;;;;;;;30.63;22.83;;;;;;;2.78;100.00;102073.31;2097233;28;20183;-62
2023/01/08 00:15:43;;;;;;;26.10;22.17;;;;;;;3.03;100.00;102109.69;2091254;28;20434;-62
2023/01/08 00:16:44;;;;;;;29.43;22.47;;;;;;;3.04;100.00;102106.59;2093043;28;20523;-62
2023/01/08 00:17:45;;;;;;;28.43;21.43;;;;;;;3.06;100.00;102107.06;2097146;28;20225;-62
2023/01/08 00:18:46;;;;;;;29.33;21.43;;;;;;;3.04;100.00;102111.28;2095421;28;20209;-62
2023/01/08 00:19:46;;;;;;;27.63;21.90;;;;;;;3.03;100.00;102113.22;2088856;28;20667;-62
2023/01/08 00:20:47;;;;;;;28.23;20.80;;;;;;;3.05;100.00;102105.47;2089099;28;20569;-62
2023/01/08 00:21:48;;;;;;;29.20;21.90;;;;;;;3.05;100.00;102108.22;2096475;28;20192;-62
2023/01/08 00:22:49;;;;;;;28.33;21.07;;;;;;;3.06;100.00;102117.22;2096892;28;20183;-62
2023/01/08 00:23:49;;;;;;;31.48;21.85;;;;;;;3.04;100.00;102114.81;2097292;28;20192;-62
2023/01/08 00:24:50;;;;;;;30.37;23.10;;;;;;;3.04;100.00;102114.81;2096867;28;20215;-62
2023/01/08 00:25:50;;;;;;;28.90;21.20;;;;;;;2.74;100.00;102063.44;2093569;28;20181;-62
2023/01/08 00:26:51;;;;;;;28.10;20.50;;;;;;;3.06;100.00;102118.00;2088774;28;20234;-62
2023/01/08 00:27:51;;;;;;;23.73;19.03;;;;;;;2.94;100.00;102129.00;2090827;28;20172;-62
2023/01/08 00:28:52;;;;;;;27.43;20.13;;;;;;;3.02;100.00;102110.81;2105615;28;20170;-62
2023/01/08 00:29:52;;;;;;;26.87;19.47;;;;;;;2.97;100.00;102111.88;2097357;28;20561;-62
2023/01/08 00:30:52;;;;;;;25.37;20.23;;;;;;;2.93;100.00;102115.66;2096730;28;20188;-62
2023/01/08 00:31:53;;;;;;;26.07;21.17;;;;;;;2.88;100.00;102116.66;2091639;28;20186;-62
2023/01/08 00:32:53;;;;;;;27.93;20.70;;;;;;;2.87;100.00;102120.56;2088673;28;20283;-62
2023/01/08 00:33:54;;;;;;;25.23;20.33;;;;;;;2.85;100.00;102122.84;2088860;28;20194;-62
2023/01/08 00:34:55;;;;;;;26.70;20.47;;;;;;;2.83;100.00;102116.91;2090045;28;20196;-62
2023/01/08 00:35:55;;;;;;;26.05;20.90;;;;;;;2.78;100.00;102108.13;2096959;28;20206;-62
2023/01/08 00:36:55;;;;;;;30.10;23.07;;;;;;;2.78;100.00;102119.88;2097260;28;20171;-62
2023/01/08 00:37:56;;;;;;;31.73;23.13;;;;;;;2.74;100.00;102118.19;2089511;28;20191;-62
2023/01/08 00:38:58;;;;;;;27.87;21.97;;;;;;;2.71;100.00;102116.91;2088760;28;20537;-62
2023/01/08 00:39:58;;;;;;;29.83;21.98;;;;;;;2.72;100.00;102125.94;2094469;28;20681;-62
2023/01/08 00:40:59;;;;;;;34.70;22.53;;;;;;;2.72;100.00;102117.72;2096656;28;20206;-62
2023/01/08 00:41:59;;;;;;;32.27;22.90;;;;;;;2.67;100.00;102118.75;2093614;28;20238;-62
2023/01/08 00:43:00;;;;;;;28.07;21.70;;;;;;;2.69;100.00;102121.94;2088654;28;20169;-62
2023/01/08 00:44:19;;;;;;;31.30;23.27;;;;;;;2.67;100.00;102121.47;2088788;28;20259;-62
2023/01/08 00:45:19;;;;;;;32.95;25.60;;;;;;;2.61;100.00;102122.03;2088190;28;20183;-62
2023/01/08 00:46:20;;;;;;;34.97;26.77;;;;;;;2.56;100.00;102119.56;2088124;28;20294;-61
2023/01/08 00:47:20;;;;;;;35.37;27.40;;;;;;;2.50;100.00;102121.72;2088971;28;20566;-62
2023/01/08 00:48:21;;;;;;;35.47;28.30;;;;;;;2.48;100.00;102120.47;2096906;28;20580;-62
2023/01/08 00:49:22;;;;;;;28.45;23.98;;;;;;;2.48;100.00;102131.41;2094601;28;20182;-62
2023/01/08 00:50:22;;;;;;;31.03;24.53;;;;;;;2.43;100.00;102128.91;2090846;28;20188;-62
2023/01/08 00:51:23;;;;;;;30.47;23.57;;;;;;;2.40;100.00;102122.16;2088310;28;20641;-62
2023/01/08 00:52:23;;;;;;;28.77;23.33;;;;;;;2.38;100.00;102123.66;2092026;28;20545;-61
2023/01/08 00:53:23;;;;;;;27.90;21.50;;;;;;;2.35;100.00;102122.38;2094658;28;20196;-62
2023/01/08 00:54:24;;;;;;;28.37;21.57;;;;;;;2.20;100.00;102094.91;2089674;28;20621;-62
2023/01/08 00:55:24;;;;;;;25.53;20.70;;;;;;;2.29;100.00;102122.94;2096935;28;20179;-62
2023/01/08 00:56:25;;;;;;;25.97;21.43;;;;;;;2.07;100.00;102096.84;2088805;28;20180;-61
2023/01/08 00:57:25;;;;;;;29.50;22.77;;;;;;;2.08;100.00;102092.16;2088942;28;20192;-62
2023/01/08 00:58:25;;;;;;;30.20;21.67;;;;;;;2.25;100.00;102122.84;2094569;28;20183;-62
2023/01/08 00:59:26;;;;;;;26.27;20.10;;;;;;;2.23;100.00;102122.38;2092345;28;20208;-61
2023/01/08 01:00:27;;;;;;;25.60;19.87;;;;;;;2.20;100.00;102123.06;2088552;28;20792;-61
2023/01/08 01:01:27;;;;;;;26.77;20.65;;;;;;;2.18;100.00;102122.59;2089892;28;20172;-61
2023/01/08 01:02:28;;;;;;;27.00;21.37;;;;;;;2.20;100.00;102123.06;2095920;28;20211;-62
2023/01/08 01:03:29;;;;;;;24.20;19.47;;;;;;;2.17;100.00;102123.72;2088867;28;20799;-61
2023/01/08 01:04:30;;;;;;;29.05;21.08;;;;;;;2.14;100.00;102129.06;2097078;28;20172;-61
2023/01/08 01:05:30;;;;;;;27.23;21.37;;;;;;;2.11;100.00;102129.78;2089197;28;20725;-61
2023/01/08 01:06:31;;;;;;;26.70;20.57;;;;;;;1.44;100.00;102020.84;2088637;28;20283;-61
2023/01/08 01:07:33;;;;;;;25.43;19.63;;;;;;;2.07;100.00;102131.59;2088751;28;20185;-61
2023/01/08 01:08:34;;;;;;;26.90;19.73;;;;;;;2.05;100.00;102137.38;2092661;28;20271;-61
2023/01/08 01:09:34;;;;;;;26.63;19.85;;;;;;;2.02;100.00;102131.81;2094153;28;20195;-61
2023/01/08 01:10:38;;;;;;;23.93;19.70;;;;;;;2.03;100.00;102134.19;2095978;28;20657;-61
2023/01/08 01:11:38;;;;;;;28.63;21.35;;;;;;;2.02;100.00;102137.25;2095353;28;20179;-61
2023/01/08 01:12:39;;;;;;;26.47;21.20;;;;;;;2.01;100.00;102146.63;2088890;28;20180;-61
2023/01/08 01:13:40;;;;;;;31.33;25.25;;;;;;;2.01;100.00;102141.16;2088760;28;20184;-61
2023/01/08 01:14:40;;;;;;;35.10;27.67;;;;;;;2.04;100.00;102140.44;2088586;28;20187;-61
2023/01/08 01:15:41;;;;;;;31.87;24.67;;;;;;;2.04;100.00;102145.91;2088305;28;20184;-61
2023/01/08 01:16:42;;;;;;;29.47;23.60;;;;;;;2.03;100.00;102142.41;2093378;28;20700;-61
2023/01/08 01:17:44;;;;;;;28.88;23.60;;;;;;;1.11;100.00;101995.47;2096871;28;20641;-62
2023/01/08 01:18:45;;;;;;;28.52;23.48;;;;;;;2.02;100.00;102137.25;2096961;28;20164;-61
2023/01/08 01:19:45;;;;;;;26.07;21.37;;;;;;;1.98;100.00;102125.41;2096933;28;20178;-61
2023/01/08 01:20:45;;;;;;;26.73;20.63;;;;;;;2.05;100.00;102133.88;2096802;28;20275;-61
2023/01/08 01:21:46;;;;;;;26.10;20.70;;;;;;;0.94;100.00;101960.13;2096476;28;20168;-61
2023/01/08 01:22:46;;;;;;;27.07;21.20;;;;;;;2.06;100.00;102138.19;2095923;28;20798;-61
2023/01/08 01:23:47;;;;;;;28.63;21.70;;;;;;;1.61;100.00;102069.03;2090038;28;20176;-61
2023/01/08 01:24:47;;;;;;;32.13;22.37;;;;;;;2.04;100.00;102133.06;2093678;28;20262;-61
2023/01/08 01:25:48;;;;;;;26.90;22.83;;;;;;;2.04;100.00;102135.78;2096419;28;20176;-61
2023/01/08 01:26:48;;;;;;;30.90;23.60;;;;;;;2.07;100.00;102135.13;2093872;28;20224;-61
2023/01/08 01:27:48;;;;;;;32.63;24.47;;;;;;;2.08;100.00;102139.47;2090507;28;20177;-61
2023/01/08 01:28:51;;;;;;;29.33;23.43;;;;;;;2.10;100.00;102141.84;2098280;28;20168;-61
2023/01/08 01:29:52;;;;;;;28.95;22.48;;;;;;;2.11;100.00;102130.56;2098654;28;20176;-61
2023/01/08 01:30:56;;;;;;;33.50;23.50;;;;;;;2.11;100.00;102133.28;2090451;28;20188;-61
2023/01/08 01:31:57;;;;;;;29.48;22.67;;;;;;;2.12;100.00;102145.84;2089831;28;20442;-61
2023/01/08 01:32:57;;;;;;;28.33;22.67;;;;;;;2.15;100.00;102133.41;2096218;28;20213;-61
2023/01/08 01:33:58;;;;;;;32.50;24.00;;;;;;;2.18;100.00;102139.03;2093653;28;20219;-61
2023/01/08 01:34:59;;;;;;;27.97;21.53;;;;;;;2.18;100.00;102143.69;2093440;28;20192;-61
2023/01/08 01:36:01;;;;;;;26.37;19.97;;;;;;;2.19;100.00;102139.81;2098448;28;20222;-61
2023/01/08 01:37:03;;;;;;;29.48;21.67;;;;;;;2.19;100.00;102161.69;2096707;28;20180;-61
2023/01/08 01:38:03;;;;;;;27.98;20.85;;;;;;;2.01;100.00;102114.59;2089965;28;20180;-61
2023/01/08 01:39:04;;;;;;;29.73;22.57;;;;;;;2.18;100.00;102135.47;2090393;28;20176;-61
2023/01/08 01:40:05;;;;;;;27.83;23.13;;;;;;;1.75;100.00;102072.28;2098208;28;20176;-61
2023/01/08 01:41:05;;;;;;;28.40;23.37;;;;;;;2.20;100.00;102133.19;2091091;28;20588;-61
2023/01/08 01:42:38;;;;;;;28.17;22.37;;;;;;;2.18;100.00;102138.22;2090060;28;20561;-61
2023/01/08 01:43:54;;;;;;;27.52;20.45;;;;;;;2.15;100.00;102136.94;2089881;28;20249;-61
2023/01/08 01:44:54;;;;;;;27.55;21.63;;;;;;;2.15;100.00;102141.59;2088800;28;20330;-61
2023/01/08 01:45:54;;;;;;;25.80;19.90;;;;;;;2.09;100.00;102134.75;2098592;28;20160;-61
2023/01/08 01:46:55;;;;;;;28.53;21.00;;;;;;;2.06;100.00;102133.50;2091031;28;20185;-61
2023/01/08 01:48:02;;;;;;;28.60;21.73;;;;;;;2.04;100.00;102138.53;2090171;28;20234;-61
2023/01/08 01:49:22;;;;;;;26.90;21.23;;;;;;;1.23;100.00;101997.47;2091955;28;20184;-61
2023/01/08 01:50:29;;;;;;;25.67;19.40;;;;;;;2.05;100.00;102137.38;2098029;28;20176;-61
2023/01/08 01:51:33;;;;;;;25.35;19.70;;;;;;;0.79;100.00;101941.69;2090702;28;20245;-61
2023/01/08 01:52:39;;;;;;;24.50;19.70;;;;;;;1.97;100.00;102135.56;2089962;28;20184;-61
2023/01/08 01:53:40;;;;;;;27.30;18.67;;;;;;;1.77;100.00;102106.34;2090018;28;20254;-61
2023/01/08 01:54:41;;;;;;;23.27;18.50;;;;;;;1.95;100.00;102137.81;2095214;28;20214;-61
2023/01/08 01:55:42;;;;;;;27.60;19.17;;;;;;;1.94;100.00;102132.69;2094014;28;20214;-61
2023/01/08 01:56:45;;;;;;;25.60;19.15;;;;;;;1.94;100.00;102132.69;2092798;28;20308;-61
2023/01/08 01:57:58;;;;;;;23.70;19.50;;;;;;;1.92;100.00;102135.78;2096261;28;20171;-61
2023/01/08 01:58:59;;;;;;;23.20;18.33;;;;;;;1.90;100.00;102129.81;2092644;28;20526;-61
2023/01/08 02:00:03;;;;;;;25.07;18.67;;;;;;;1.87;100.00;102137.91;2096819;28;20206;-61
2023/01/08 02:01:06;;;;;;;23.67;18.58;;;;;;;1.86;100.00;102130.84;2089322;28;20172;-61
2023/01/08 02:02:07;;;;;;;25.38;18.80;;;;;;;1.21;100.00;102029.75;2097122;28;20209;-61
2023/01/08 02:03:10;;;;;;;23.93;18.47;;;;;;;1.87;100.00;102135.19;2097679;28;20676;-61
2023/01/08 02:04:12;;;;;;;24.02;18.02;;;;;;;1.87;100.00;102135.97;2090711;28;20208;-61
2023/01/08 02:05:12;;;;;;;24.02;17.27;;;;;;;1.90;100.00;102137.25;2090426;28;20200;-61
2023/01/08 02:06:33;;;;;;;28.03;19.40;;;;;;;1.90;100.00;102138.03;2089263;28;20202;-61
2023/01/08 02:07:55;;;;;;;21.90;18.13;;;;;;;1.90;100.00;102131.78;2090184;28;20192;-61
2023/01/08 02:09:04;;;;;;;23.70;16.48;;;;;;;1.88;100.00;102139.50;2090224;28;20572;-61
2023/01/08 02:10:15;;;;;;;21.98;17.88;;;;;;;1.80;100.00;102124.00;2093180;28;20207;-61
2023/01/08 02:11:18;;;;;;;21.58;17.23;;;;;;;1.86;100.00;102137.09;2089412;28;20176;-61
2023/01/08 02:13:00;;;;;;;19.92;16.50;;;;;;;1.78;100.00;102129.81;2098081;28;20203;-61
2023/01/08 02:14:08;;;;;;;23.33;17.13;;;;;;;1.77;100.00;102150.06;2077179;28;20574;-61
2023/01/08 02:15:26;;;;;;;22.30;17.10;;;;;;;1.78;100.00;102129.81;2069145;28;20221;-61
2023/01/08 02:16:48;;;;;;;21.70;17.60;;;;;;;1.77;100.00;102133.69;2068522;28;20228;-61
2023/01/08 02:17:54;;;;;;;20.10;16.05;;;;;;;1.79;100.00;102122.38;2072376;28;20169;-61
2023/01/08 02:19:01;;;;;;;18.15;14.73;;;;;;;1.78;100.00;102129.00;2072261;28;20667;-61
2023/01/08 02:20:07;;;;;;;22.10;15.60;;;;;;;1.78;100.00;102129.00;2088446;28;20200;-61
2023/01/08 02:21:13;;;;;;;22.55;16.67;;;;;;;1.79;100.00;102123.19;2094511;28;20204;-61
2023/01/08 02:22:35;;;;;;;21.80;16.95;;;;;;;1.80;100.00;102124.78;2093460;28;20184;-61
2023/01/08 02:23:52;;;;;;;21.35;16.08;;;;;;;1.80;100.00;102126.75;2089885;28;20680;-61
2023/01/08 02:25:09;;;;;;;19.80;15.80;;;;;;;1.80;100.00;102124.78;2093077;28;20604;-61
2023/01/08 02:26:23;;;;;;;19.95;15.93;;;;;;;1.80;100.00;102127.50;2098073;28;20203;-61
2023/01/08 02:27:28;;;;;;;18.27;15.20;;;;;;;1.82;100.00;102122.53;2089984;28;20163;-61
2023/01/08 02:28:32;;;;;;;23.13;16.38;;;;;;;1.82;100.00;102125.25;2089973;28;20556;-61
2023/01/08 02:29:34;;;;;;;20.60;16.02;;;;;;;1.81;100.00;102133.78;2089930;28;20217;-61
2023/01/08 02:30:35;;;;;;;20.95;16.10;;;;;;;1.84;100.00;102124.91;2089652;28;20560;-61
2023/01/08 02:31:39;;;;;;;19.83;15.47;;;;;;;1.86;100.00;102126.16;2089434;28;20210;-61
2023/01/08 02:32:41;;;;;;;18.10;14.63;;;;;;;1.86;100.00;102120.69;2094960;28;20674;-61
2023/01/08 02:33:42;;;;;;;16.73;14.52;;;;;;;1.59;100.00;102083.03;2093335;28;20682;-61
2023/01/08 02:34:42;;;;;;;18.30;15.57;;;;;;;1.87;100.00;102127.78;2093149;28;20566;-61
2023/01/08 02:36:10;;;;;;;17.07;14.30;;;;;;;1.89;100.00;102130.97;2095370;28;20243;-61
2023/01/08 02:37:10;;;;;;;19.98;15.00;;;;;;;1.89;100.00;102121.97;2094440;28;20206;-61
2023/01/08 02:38:14;;;;;;;19.67;14.90;;;;;;;1.89;100.00;102125.50;2094252;28;20188;-61
2023/01/08 02:39:23;;;;;;;20.58;14.77;;;;;;;1.91;100.00;102125.94;2089634;28;20185;-61
2023/01/08 02:40:55;;;;;;;18.17;14.90;;;;;;;1.90;100.00;102129.03;2089614;28;20279;-61
2023/01/08 02:42:03;;;;;;;18.40;13.68;;;;;;;1.91;100.00;102125.16;2081910;28;20208;-61
2023/01/08 02:43:16;;;;;;;18.63;14.20;;;;;;;1.90;100.00;102127.09;2090984;28;20179;-61
2023/01/08 02:44:27;;;;;;;20.35;13.70;;;;;;;1.89;100.00;102122.75;2096019;28;20565;-61
2023/01/08 02:45:35;;;;;;;18.83;13.98;;;;;;;1.86;100.00;102122.66;2091011;28;20623;-61
2023/01/08 02:46:39;;;;;;;18.92;13.07;;;;;;;1.87;100.00;102122.31;2089539;28;20668;-61
2023/01/08 02:48:01;;;;;;;18.90;13.75;;;;;;;1.84;100.00;102117.50;2089544;28;20193;-61
2023/01/08 02:49:07;;;;;;;16.23;12.30;;;;;;;0.04;100.00;101841.06;2091513;28;20192;-61
2023/01/08 02:50:12;;;;;;;18.08;13.48;;;;;;;1.85;100.00;102126.53;2089968;28;20208;-61
2023/01/08 02:51:30;;;;;;;18.25;13.75;;;;;;;1.85;100.00;102118.31;2082249;28;20235;-61
2023/01/08 02:52:35;;;;;;;19.77;14.05;;;;;;;1.86;100.00;102128.13;2094575;28;20631;-61
2023/01/08 02:53:41;;;;;;;17.50;13.82;;;;;;;1.28;100.00;102033.53;2089513;28;20192;-61
2023/01/08 02:54:45;;;;;;;18.77;13.77;;;;;;;1.88;100.00;102120.38;2089615;28;20267;-61
2023/01/08 02:55:51;;;;;;;17.27;13.48;;;;;;;1.87;100.00;102126.97;2095614;28;20214;-61
2023/01/08 02:57:01;;;;;;;19.20;14.23;;;;;;;1.76;100.00;102107.44;2097676;28;20594;-61
2023/01/08 02:58:03;;;;;;;21.58;15.45;;;;;;;1.79;100.00;102103.25;2097286;28;20238;-61
2023/01/08 02:59:07;;;;;;;20.45;13.77;;;;;;;1.92;100.00;102124.84;2096979;28;20253;-61
2023/01/08 03:00:08;;;;;;;18.90;14.40;;;;;;;1.93;100.00;102120.97;2093883;28;20215;-61
2023/01/08 03:01:11;;;;;;;18.48;14.45;;;;;;;1.94;100.00;102117.09;2097055;28;20184;-61
2023/01/08 03:02:12;;;;;;;18.20;14.43;;;;;;;1.93;100.00;102118.22;2095102;28;20555;-61
2023/01/08 03:03:23;;;;;;;19.90;14.33;;;;;;;1.93;100.00;102122.88;2089359;28;20431;-61
2023/01/08 03:04:25;;;;;;;19.33;15.57;;;;;;;1.74;100.00;102084.31;2089316;28;20167;-61
2023/01/08 03:05:27;;;;;;;19.10;13.73;;;;;;;1.40;100.00;102024.59;2089700;28;20561;-61
2023/01/08 03:06:28;;;;;;;17.27;13.23;;;;;;;1.99;100.00;102116.88;2097823;28;20669;-61
2023/01/08 03:07:28;;;;;;;18.15;13.20;;;;;;;1.99;100.00;102125.06;2089896;28;20203;-62
2023/01/08 03:08:33;;;;;;;17.00;14.10;;;;;;;1.99;100.00;102116.06;2089526;28;20672;-61
2023/01/08 03:09:34;;;;;;;16.92;13.45;;;;;;;1.99;100.00;102118.78;2089603;28;20219;-61
2023/01/08 03:10:37;;;;;;;20.45;14.90;;;;;;;1.61;100.00;102069.03;2094429;28;20186;-61
2023/01/08 03:12:02;;;;;;;18.60;14.13;;;;;;;1.93;100.00;102126.44;2092880;28;20196;-62
2023/01/08 03:13:32;;;;;;;23.52;15.73;;;;;;;1.94;100.00;102125.28;2089443;28;20255;-61
2023/01/08 03:14:44;;;;;;;21.15;13.57;;;;;;;1.95;100.00;102126.88;2071884;28;20194;-61
2023/01/08 03:15:52;;;;;;;22.17;15.85;;;;;;;1.94;100.00;102117.09;2088471;28;20164;-61
2023/01/08 03:17:13;;;;;;;23.15;15.25;;;;;;;1.93;100.00;102118.22;2096944;28;20190;-61
2023/01/08 03:18:22;;;;;;;21.98;14.80;;;;;;;1.58;100.00;102070.53;2081755;28;20239;-61
2023/01/08 03:19:40;;;;;;;18.95;13.77;;;;;;;1.85;100.00;102116.38;2090727;28;20176;-61
2023/01/08 03:20:42;;;;;;;21.55;14.32;;;;;;;1.87;100.00;102119.59;2094908;28;20681;-61
2023/01/08 03:21:45;;;;;;;17.92;14.05;;;;;;;1.84;100.00;102119.44;2090878;28;20650;-61
2023/01/08 03:22:49;;;;;;;21.38;15.57;;;;;;;1.34;100.00;102061.44;2096280;28;20180;-61
2023/01/08 03:23:50;;;;;;;18.95;14.82;;;;;;;1.18;100.00;102027.72;2089643;28;20204;-61
2023/01/08 03:24:53;;;;;;;19.50;14.90;;;;;;;1.39;100.00;102061.25;2097288;28;20168;-61
2023/01/08 03:25:54;;;;;;;18.88;14.65;;;;;;;1.77;100.00;102120.00;2089553;28;20187;-61
2023/01/08 03:26:59;;;;;;;21.95;15.50;;;;;;;1.77;100.00;102125.47;2089363;28;20400;-61
2023/01/08 03:28:05;;;;;;;18.10;15.38;;;;;;;1.76;100.00;102126.59;2089523;28;20204;-61
2023/01/08 03:29:10;;;;;;;17.33;14.10;;;;;;;0.93;100.00;101993.25;2095171;28;20270;-61
2023/01/08 03:30:13;;;;;;;20.08;14.35;;;;;;;1.00;100.00;102012.59;2092130;28;20238;-61
2023/01/08 03:31:15;;;;;;;20.75;14.95;;;;;;;1.77;100.00;102128.22;2088903;28;20180;-61
2023/01/08 03:32:19;;;;;;;17.33;14.25;;;;;;;1.76;100.00;102128.53;2092859;28;20195;-61
2023/01/08 03:33:21;;;;;;;20.10;15.70;;;;;;;1.73;100.00;102127.28;2097602;28;20188;-61
2023/01/08 03:34:25;;;;;;;21.88;14.85;;;;;;;1.27;100.00;102056.53;2097344;28;20677;-61
2023/01/08 03:35:28;;;;;;;18.35;14.70;;;;;;;1.76;100.00;102134.00;2095883;28;20601;-61
2023/01/08 03:36:32;;;;;;;18.13;14.63;;;;;;;1.73;100.00;102131.94;2088946;28;20298;-61
2023/01/08 03:37:37;;;;;;;17.40;13.90;;;;;;;1.70;100.00;102133.41;2089406;28;20597;-61
2023/01/08 03:38:51;;;;;;;18.92;14.68;;;;;;;1.45;100.00;102112.56;2088735;28;20180;-61
2023/01/08 03:40:03;;;;;;;22.27;17.13;;;;;;;1.65;100.00;102128.16;2089136;28;20152;-61
2023/01/08 03:41:08;;;;;;;24.77;17.73;;;;;;;1.65;100.00;102124.63;2088651;28;20259;-61
2023/01/08 03:42:12;;;;;;;25.35;17.98;;;;;;;1.62;100.00;102137.03;2089518;28;20188;-61
2023/01/08 03:43:13;;;;;;;23.33;17.55;;;;;;;0.76;100.00;102002.38;2089268;28;20273;-61
2023/01/08 03:44:14;;;;;;;28.20;21.07;;;;;;;1.60;100.00;102133.03;2089006;28;20215;-61
2023/01/08 03:45:15;;;;;;;28.77;21.87;;;;;;;1.62;100.00;102141.69;2095065;28;20199;-61
2023/01/08 03:46:22;;;;;;;19.33;15.43;;;;;;;1.63;100.00;102132.34;2097281;28;20195;-61
2023/01/08 03:47:24;;;;;;;28.05;20.20;;;;;;;1.64;100.00;102137.47;2092605;28;20192;-61
2023/01/08 03:48:27;;;;;;;27.25;19.10;;;;;;;1.63;100.00;102135.88;2089021;28;20184;-61
2023/01/08 03:49:28;;;;;;;22.55;17.15;;;;;;;1.61;100.00;102135.44;2091291;28;20199;-61
2023/01/08 03:50:30;;;;;;;24.45;17.20;;;;;;;1.60;100.00;102135.78;2088496;28;20589;-61
2023/01/08 03:51:41;;;;;;;20.77;17.48;;;;;;;1.58;100.00;102138.84;2089730;28;20581;-61
2023/01/08 03:52:42;;;;;;;23.15;16.40;;;;;;;1.58;100.00;102132.56;2097323;28;20181;-61
2023/01/08 03:53:42;;;;;;;26.50;20.30;;;;;;;1.28;100.00;102088.16;2097099;28;20204;-61
2023/01/08 03:54:43;;;;;;;24.17;19.07;;;;;;;1.57;100.00;102139.16;2097623;28;20179;-61
2023/01/08 03:55:43;;;;;;;29.10;22.10;;;;;;;1.59;100.00;102137.69;2096962;28;20635;-61
2023/01/08 03:56:44;;;;;;;26.60;21.37;;;;;;;1.55;100.00;102141.44;2091244;28;20199;-61
2023/01/08 03:57:44;;;;;;;27.47;22.03;;;;;;;1.55;100.00;102138.72;2088935;28;20188;-61
2023/01/08 03:58:45;;;;;;;30.33;22.07;;;;;;;1.52;100.00;102162.03;2093006;28;20206;-61
2023/01/08 03:59:46;;;;;;;24.53;20.57;;;;;;;1.15;100.00;102086.50;2097301;28;20302;-61
2023/01/08 04:00:46;;;;;;;26.15;21.35;;;;;;;1.17;100.00;102092.44;2095738;28;20179;-62
2023/01/08 04:01:47;;;;;;;26.87;21.13;;;;;;;1.57;100.00;102148.16;2088513;28;20175;-61
2023/01/08 04:02:47;;;;;;;24.47;18.80;;;;;;;1.28;100.00;102098.31;2089203;28;20199;-61
2023/01/08 04:03:47;;;;;;;25.70;20.33;;;;;;;1.58;100.00;102151.69;2096754;28;20203;-61
2023/01/08 04:04:48;;;;;;;26.73;20.13;;;;;;;1.53;100.00;102149.16;2090808;28;20192;-61
2023/01/08 04:05:48;;;;;;;24.50;19.70;;;;;;;1.46;100.00;102152.44;2088606;28;20184;-61
2023/01/08 04:06:51;;;;;;;25.13;19.40;;;;;;;1.52;100.00;102147.56;2092977;28;20229;-61
2023/01/08 04:07:55;;;;;;;22.48;17.38;;;;;;;1.54;100.00;102146.09;2094305;28;20210;-61
2023/01/08 04:08:56;;;;;;;26.42;18.45;;;;;;;1.51;100.00;102148.69;2088943;28;20658;-61
2023/01/08 04:09:56;;;;;;;25.13;18.80;;;;;;;1.50;100.00;102144.38;2089322;28;20772;-62
2023/01/08 04:10:57;;;;;;;26.63;18.70;;;;;;;1.49;100.00;102161.91;2090492;28;20247;-61
2023/01/08 04:11:57;;;;;;;23.90;18.13;;;;;;;0.61;100.00;102008.41;2097098;28;20190;-61
2023/01/08 04:12:58;;;;;;;24.53;17.93;;;;;;;1.46;100.00;102143.44;2089832;28;20196;-61
2023/01/08 04:13:58;;;;;;;22.47;17.70;;;;;;;1.42;100.00;102142.50;2095070;28;20219;-61
2023/01/08 04:14:59;;;;;;;24.20;17.90;;;;;;;1.23;100.00;102120.34;2091820;28;20194;-61
2023/01/08 04:15:59;;;;;;;26.20;19.00;;;;;;;1.34;100.00;102138.72;2092644;28;20223;-61
2023/01/08 04:17:00;;;;;;;24.13;18.90;;;;;;;1.31;100.00;102146.78;2093933;28;20217;-61
2023/01/08 04:18:00;;;;;;;24.33;17.93;;;;;;;1.28;100.00;102142.78;2088327;28;20172;-61
2023/01/08 04:19:01;;;;;;;27.13;19.87;;;;;;;0.90;100.00;102092.97;2088923;28;20602;-61
2023/01/08 04:20:02;;;;;;;23.30;17.67;;;;;;;1.12;100.00;102127.31;2097313;28;20175;-61
2023/01/08 04:21:02;;;;;;;24.63;18.65;;;;;;;0.39;100.00;102019.66;2096798;28;20190;-61
2023/01/08 04:22:03;;;;;;;22.63;18.20;;;;;;;0.58;100.00;102047.25;2090886;28;20188;-61
2023/01/08 04:23:03;;;;;;;24.67;17.87;;;;;;;1.12;100.00;102140.97;2094062;28;20191;-61
2023/01/08 04:24:04;;;;;;;22.87;17.17;;;;;;;1.09;100.00;102136.97;2093188;28;20184;-61
2023/01/08 04:25:05;;;;;;;23.73;17.98;;;;;;;1.07;100.00;102141.97;2090927;28;20216;-62
2023/01/08 04:26:07;;;;;;;24.63;18.40;;;;;;;1.04;100.00;102142.63;2088422;28;20204;-61
2023/01/08 04:27:07;;;;;;;25.88;18.83;;;;;;;0.98;100.00;102129.53;2089436;28;20180;-61
2023/01/08 04:28:07;;;;;;;25.40;19.83;;;;;;;1.02;100.00;102147.63;2097342;28;20262;-62
2023/01/08 04:29:08;;;;;;;32.63;20.87;;;;;;;0.54;100.00;102075.53;2089416;28;20238;-61
2023/01/08 04:30:09;;;;;;;23.93;19.97;;;;;;;0.94;100.00;102139.50;2095645;28;20232;-61
2023/01/08 04:31:09;;;;;;;27.50;19.55;;;;;;;0.94;100.00;102137.56;2091116;28;20211;-61
2023/01/08 04:32:10;;;;;;;22.93;17.23;;;;;;;0.37;100.00;102054.63;2088999;28;20536;-61
2023/01/08 04:33:11;;;;;;;24.13;18.53;;;;;;;0.69;100.00;102116.72;2091882;28;20198;-61
2023/01/08 04:34:11;;;;;;;23.07;17.47;;;;;;;0.90;100.00;102139.38;2095032;28;20209;-61
2023/01/08 04:35:12;;;;;;;22.73;18.37;;;;;;;0.91;100.00;102142.88;2088391;28;20597;-61
2023/01/08 04:36:13;;;;;;;24.83;18.43;;;;;;;0.90;100.00;102144.00;2089016;28;20649;-61
2023/01/08 04:37:13;;;;;;;22.67;18.40;;;;;;;0.87;100.00;102144.66;2088193;28;20188;-61
2023/01/08 04:38:14;;;;;;;25.70;17.53;;;;;;;0.87;100.00;102141.94;2088149;28;20455;-62
2023/01/08 04:39:14;;;;;;;24.63;17.73;;;;;;;0.79;100.00;102129.97;2089054;28;20263;-61
2023/01/08 04:40:15;;;;;;;23.57;17.10;;;;;;;0.78;100.00;102127.56;2088725;28;20661;-61
2023/01/08 04:41:17;;;;;;;21.57;17.10;;;;;;;0.85;100.00;102136.84;2091829;28;20222;-61
2023/01/08 04:42:17;;;;;;;21.85;16.80;;;;;;;0.87;100.00;102137.28;2094426;28;20208;-61
2023/01/08 04:43:18;;;;;;;23.40;16.00;;;;;;;0.85;100.00;102138.75;2088917;28;20176;-62
2023/01/08 04:44:18;;;;;;;22.93;16.87;;;;;;;0.07;100.00;102020.28;2088863;28;20183;-61
2023/01/08 04:45:19;;;;;;;22.33;16.03;;;;;;;0.43;100.00;102107.84;2096854;28;20183;-62
2023/01/08 04:46:19;;;;;;;22.67;16.90;;;;;;;0.80;100.00;102133.47;2089684;28;20723;-62
2023/01/08 04:47:20;;;;;;;21.30;15.63;;;;;;;-0.50;100.00;101937.38;2094855;28;20502;-61
2023/01/08 04:48:20;;;;;;;19.00;15.47;;;;;;;0.77;100.00;102145.84;2092082;28;20668;-61
2023/01/08 04:49:20;;;;;;;22.03;16.50;;;;;;;0.02;100.00;102025.91;2089575;28;20242;-61